Time;durP1;ratioP1;P1;durP2;ratioP2;P2;SDS_P1;SDS_P2;PMS_P1;PMS_P2;Temp;Humidity;BMP_temperature;BMP_pressure;BME280_temperature;BME280_humidity;BME280_pressure;Samples;Min_cycle;Max_cycle;Signal;HPM_P1;HPM_P2
2021/03/08 00:00:36;;;;;;;57.53;29.08;;;;;;;1.99;81.84;102502.31;5004661;28;20318;-72
2021/03/08 00:03:03;;;;;;;63.67;29.90;;;;;;;1.86;82.62;102496.94;5011118;28;20052;-72
2021/03/08 00:05:28;;;;;;;55.60;28.83;;;;;;;1.75;83.27;102506.19;5009526;28;20017;-72
2021/03/08 00:07:54;;;;;;;63.85;30.35;;;;;;;1.68;84.19;102500.47;5003166;28;20541;-71
2021/03/08 00:10:20;;;;;;;62.83;30.48;;;;;;;2.00;83.79;102499.03;4987928;28;20322;-71
2021/03/08 00:12:47;;;;;;;63.77;30.87;;;;;;;1.99;82.99;102501.44;5003234;28;20071;-71
2021/03/08 00:15:13;;;;;;;65.77;30.23;;;;;;;2.19;82.09;102491.31;5025504;28;20032;-74
2021/03/08 00:17:40;;;;;;;60.70;30.97;;;;;;;2.16;82.34;102485.97;5014346;28;20040;-74
2021/03/08 00:20:08;;;;;;;60.78;29.88;;;;;;;2.08;82.45;102490.41;5015938;28;20637;-74
2021/03/08 00:22:34;;;;;;;60.40;30.37;;;;;;;2.23;80.80;102489.91;4992312;28;20039;-73
2021/03/08 00:24:59;;;;;;;65.40;31.25;;;;;;;2.29;79.98;102492.97;5013837;28;20028;-74
2021/03/08 00:27:25;;;;;;;67.07;30.92;;;;;;;2.36;79.14;102491.06;5017212;28;20082;-74
2021/03/08 00:29:50;;;;;;;63.83;31.65;;;;;;;2.37;78.26;102482.69;5028980;28;20353;-74
2021/03/08 00:32:16;;;;;;;61.30;30.83;;;;;;;2.42;77.68;102483.97;5022351;28;20550;-73
2021/03/08 00:34:41;;;;;;;58.17;29.13;;;;;;;2.48;77.60;102487.00;5015833;28;20431;-73
2021/03/08 00:37:07;;;;;;;63.63;30.73;;;;;;;2.55;76.78;102484.97;5002076;28;20282;-74
2021/03/08 00:39:32;;;;;;;65.88;32.22;;;;;;;2.56;76.74;102476.59;5014297;28;20202;-74
2021/03/08 00:41:58;;;;;;;63.00;30.00;;;;;;;2.58;76.61;102482.66;5007870;28;20361;-74
2021/03/08 00:44:25;;;;;;;61.17;28.42;;;;;;;2.60;76.28;102476.06;4990837;28;20033;-74
2021/03/08 00:46:50;;;;;;;63.47;30.63;;;;;;;2.54;77.16;102473.94;5007638;28;20016;-74
2021/03/08 00:49:16;;;;;;;63.58;30.38;;;;;;;2.47;78.31;102470.00;5013847;28;20293;-74
2021/03/08 00:51:41;;;;;;;61.35;29.40;;;;;;;2.39;78.92;102476.09;5026635;28;20197;-73
2021/03/08 00:54:07;;;;;;;61.42;31.20;;;;;;;2.40;79.12;102472.81;5013634;28;20483;-72
2021/03/08 00:56:32;;;;;;;61.78;31.52;;;;;;;2.52;78.02;102461.88;4990165;28;20205;-71
2021/03/08 00:58:58;;;;;;;62.25;31.13;;;;;;;2.54;77.92;102466.31;4992000;28;20201;-72
2021/03/08 01:01:24;;;;;;;62.00;30.20;;;;;;;2.39;78.64;102455.81;4999163;28;20303;-71
2021/03/08 01:03:50;;;;;;;61.97;30.98;;;;;;;2.35;79.25;102463.06;5022280;28;20127;-71
2021/03/08 01:06:15;;;;;;;64.75;32.38;;;;;;;2.33;79.14;102460.38;5017681;28;20194;-71
2021/03/08 01:08:41;;;;;;;63.72;30.90;;;;;;;2.32;79.69;102455.19;5020439;28;20327;-71
2021/03/08 01:11:07;;;;;;;60.83;30.13;;;;;;;2.41;79.31;102451.75;5008186;28;20349;-72
2021/03/08 01:13:32;;;;;;;59.55;30.25;;;;;;;2.48;79.80;102451.50;4995475;28;20348;-71
2021/03/08 01:15:58;;;;;;;62.75;29.42;;;;;;;2.53;79.51;102458.59;4989861;28;20028;-71
2021/03/08 01:18:24;;;;;;;59.35;29.65;;;;;;;2.51;78.92;102458.47;5006650;28;20328;-71
2021/03/08 01:20:50;;;;;;;59.47;30.33;;;;;;;2.36;79.20;102450.50;5019017;28;20864;-71
2021/03/08 01:23:15;;;;;;;58.85;29.75;;;;;;;2.52;77.79;102451.75;5006189;28;20091;-71
2021/03/08 01:25:41;;;;;;;63.10;29.80;;;;;;;2.54;78.37;102448.56;5000514;28;20332;-72
2021/03/08 01:28:07;;;;;;;62.00;31.15;;;;;;;2.44;78.52;102452.00;4996078;28;20380;-71
2021/03/08 01:30:38;;;;;;;68.57;31.95;;;;;;;2.55;78.63;102452.88;5018962;28;20271;-72
2021/03/08 01:33:05;;;;;;;61.60;30.17;;;;;;;2.60;78.47;102449.09;5009915;28;20032;-71
2021/03/08 01:35:31;;;;;;;57.90;29.90;;;;;;;2.63;77.86;102458.59;4997363;28;20135;-72
2021/03/08 01:37:56;;;;;;;57.92;29.65;;;;;;;2.73;77.43;102456.03;5021534;28;20230;-72
2021/03/08 01:40:25;;;;;;;59.83;29.67;;;;;;;2.73;76.71;102453.50;5009839;28;20349;-72
2021/03/08 01:42:51;;;;;;;61.87;30.33;;;;;;;2.74;77.24;102447.66;5006662;28;20032;-74
2021/03/08 01:45:17;;;;;;;59.70;30.48;;;;;;;2.81;76.54;102453.34;5022911;28;20028;-73
2021/03/08 01:47:44;;;;;;;62.70;30.83;;;;;;;2.73;77.48;102453.50;5010364;28;20016;-74
2021/03/08 01:50:18;;;;;;;65.40;30.67;;;;;;;2.67;79.04;102448.81;5010509;28;20059;-74
2021/03/08 01:52:44;;;;;;;56.50;29.30;;;;;;;2.47;80.13;102447.19;5002772;28;20847;-71
2021/03/08 01:55:10;;;;;;;67.10;30.80;;;;;;;2.47;79.39;102442.09;5002195;28;20037;-72
2021/03/08 01:57:36;;;;;;;60.87;29.07;;;;;;;2.63;78.08;102444.25;5004944;28;20106;-71
2021/03/08 02:00:04;;;;;;;62.03;30.27;;;;;;;2.66;78.12;102438.53;5002275;28;20028;-71
2021/03/08 02:02:30;;;;;;;62.50;29.37;;;;;;;2.65;77.99;102439.31;5000657;28;20036;-71
2021/03/08 02:04:55;;;;;;;61.88;31.85;;;;;;;2.65;77.70;102444.38;5019353;28;20032;-71
2021/03/08 02:07:21;;;;;;;59.05;29.95;;;;;;;2.69;77.08;102437.13;5006391;28;20376;-74
2021/03/08 02:09:46;;;;;;;59.20;29.10;;;;;;;2.68;76.91;102431.94;5000864;28;20479;-75
2021/03/08 02:12:22;;;;;;;60.80;29.33;;;;;;;2.72;76.64;102429.75;4996862;28;20331;-71
2021/03/08 02:15:12;;;;;;;54.97;28.67;;;;;;;2.72;76.14;102429.75;5017664;28;20154;-71
2021/03/08 02:17:51;;;;;;;58.00;29.43;;;;;;;2.76;76.12;102418.22;5002080;28;20020;-71
2021/03/08 02:20:38;;;;;;;55.47;27.77;;;;;;;2.83;75.58;102417.94;5002628;28;20028;-71
2021/03/08 02:23:37;;;;;;;57.90;29.35;;;;;;;2.79;76.23;102423.53;5018048;28;20043;-74
2021/03/08 02:26:21;;;;;;;62.97;28.70;;;;;;;2.77;76.02;102419.97;5014289;28;20025;-74
2021/03/08 02:29:06;;;;;;;53.10;27.37;;;;;;;2.74;76.31;102417.19;5001197;28;20051;-74
2021/03/08 02:31:33;;;;;;;59.00;28.17;;;;;;;2.75;77.15;102416.44;5010343;28;20028;-73
2021/03/08 02:34:04;;;;;;;61.40;27.87;;;;;;;2.74;77.35;102417.19;5022370;28;20020;-73
2021/03/08 02:36:35;;;;;;;56.70;28.30;;;;;;;2.70;77.51;102418.59;5014329;28;20027;-73
2021/03/08 02:39:18;;;;;;;55.03;28.50;;;;;;;2.76;77.20;102413.13;5000375;28;20117;-73
2021/03/08 02:41:47;;;;;;;55.60;29.73;;;;;;;2.73;77.61;102413.78;5019945;28;20055;-73
2021/03/08 02:44:15;;;;;;;53.97;26.80;;;;;;;2.76;76.96;102408.94;4967760;28;20024;-73
2021/03/08 02:46:44;;;;;;;52.97;26.47;;;;;;;2.76;76.77;102408.06;5022397;28;20032;-73
2021/03/08 02:49:15;;;;;;;58.63;28.40;;;;;;;2.81;76.25;102405.13;4982516;28;20128;-73
2021/03/08 02:51:57;;;;;;;52.77;26.47;;;;;;;2.84;76.03;102407.00;4991070;28;20142;-73
2021/03/08 02:54:25;;;;;;;56.93;28.03;;;;;;;2.83;75.88;102410.31;5019610;28;20027;-73
2021/03/08 02:56:53;;;;;;;54.73;27.50;;;;;;;2.86;75.56;102408.00;5016581;28;20040;-73
2021/03/08 02:59:21;;;;;;;50.27;27.17;;;;;;;2.79;75.86;102399.03;5004323;28;20541;-73
2021/03/08 03:01:48;;;;;;;55.60;25.33;;;;;;;2.86;75.86;102395.31;5001232;28;20101;-73
2021/03/08 03:04:16;;;;;;;57.87;27.17;;;;;;;2.91;75.17;102399.09;5015527;28;20028;-73
2021/03/08 03:06:44;;;;;;;60.17;27.87;;;;;;;2.86;75.79;102395.31;5002597;28;20028;-73
2021/03/08 03:09:12;;;;;;;52.50;25.80;;;;;;;2.77;76.26;102402.22;5015369;28;20131;-74
2021/03/08 03:11:46;;;;;;;50.53;26.03;;;;;;;2.85;75.88;102406.25;5012619;28;20027;-73
2021/03/08 03:14:12;;;;;;;48.87;25.80;;;;;;;2.87;76.49;102399.63;4997013;28;20028;-74
2021/03/08 03:16:39;;;;;;;;;;;;;;;2.86;76.21;102392.78;5019094;28;20059;-73
2021/03/08 03:19:06;;;;;;;51.75;21.80;;;;;;;2.90;76.07;102396.44;5008504;28;19992;-74
2021/03/08 03:21:36;;;;;;;50.60;25.00;;;;;;;2.94;75.52;102393.41;4991818;28;20016;-73
2021/03/08 03:24:02;;;;;;;51.83;25.33;;;;;;;2.96;74.85;102397.84;5006483;28;20012;-73
2021/03/08 03:26:30;;;;;;;46.20;26.27;;;;;;;2.90;75.53;102397.34;4990743;28;20275;-73
2021/03/08 03:28:56;;;;;;;47.00;24.03;;;;;;;2.81;76.08;102394.09;4988442;28;20047;-73
2021/03/08 03:31:23;;;;;;;50.87;25.23;;;;;;;2.92;75.38;102394.91;5010927;28;20100;-74
2021/03/08 03:33:50;;;;;;;53.43;26.27;;;;;;;2.96;75.41;102391.88;4996189;28;20028;-73
2021/03/08 03:36:16;;;;;;;51.90;26.30;;;;;;;2.91;75.49;102385.53;5001598;28;20098;-73
2021/03/08 03:38:44;;;;;;;51.77;25.17;;;;;;;2.88;75.30;102387.84;4987194;28;20160;-73
2021/03/08 03:41:09;;;;;;;50.20;25.40;;;;;;;2.90;75.59;102391.38;5015998;28;20020;-73
2021/03/08 03:43:35;;;;;;;52.40;26.63;;;;;;;2.90;74.77;102387.19;4999819;28;20459;-73
2021/03/08 03:46:04;;;;;;;50.78;26.27;;;;;;;2.92;75.02;102387.31;5022762;28;20083;-73
2021/03/08 03:48:31;;;;;;;47.33;24.73;;;;;;;2.90;75.72;102387.19;5001495;28;20020;-73
2021/03/08 03:50:57;;;;;;;48.77;26.47;;;;;;;2.93;75.63;102390.00;5003599;28;20024;-74
2021/03/08 03:53:22;;;;;;;55.28;26.85;;;;;;;2.89;75.12;102385.41;5012545;28;20322;-73
2021/03/08 03:55:48;;;;;;;50.53;25.70;;;;;;;2.99;74.76;102387.06;5027189;28;20333;-73
2021/03/08 03:58:25;;;;;;;52.10;25.88;;;;;;;3.00;74.15;102392.25;5007875;28;20384;-73
2021/03/08 04:01:08;;;;;;;46.83;24.95;;;;;;;3.00;74.00;102389.72;4991762;28;20039;-73
2021/03/08 04:03:37;;;;;;;49.13;24.20;;;;;;;3.04;73.66;102384.09;5014673;28;20562;-74
2021/03/08 04:06:05;;;;;;;49.10;24.67;;;;;;;3.03;73.48;102392.47;5013984;28;20102;-73
2021/03/08 04:08:32;;;;;;;51.93;25.63;;;;;;;2.99;74.12;102393.00;5014496;28;20028;-73
2021/03/08 04:10:58;;;;;;;;;;;;;;;3.01;73.71;102399.09;4993271;28;20050;-73
2021/03/08 04:13:29;;;;;;;54.73;25.87;;;;;;;3.00;73.86;102399.88;5008860;28;20193;-72
2021/03/08 04:15:56;;;;;;;49.23;25.63;;;;;;;2.98;74.35;102403.94;5017577;28;20587;-72
2021/03/08 04:18:25;;;;;;;51.33;25.83;;;;;;;2.99;73.99;102405.69;4992895;28;20540;-72
2021/03/08 04:20:54;;;;;;;52.13;25.73;;;;;;;3.01;73.74;102405.81;5007230;28;20445;-72
2021/03/08 04:23:21;;;;;;;60.03;27.17;;;;;;;2.99;74.14;102410.78;5015098;28;20047;-71
2021/03/08 04:25:48;;;;;;;49.30;25.90;;;;;;;3.00;73.58;102409.13;5023688;28;20032;-72
2021/03/08 04:28:16;;;;;;;53.13;26.73;;;;;;;3.03;73.85;102411.91;5014124;28;20153;-73
2021/03/08 04:30:44;;;;;;;54.87;27.97;;;;;;;3.05;73.93;102405.28;5013591;28;20024;-71
2021/03/08 04:33:12;;;;;;;51.97;26.80;;;;;;;3.06;73.50;102410.50;4989850;28;20101;-71
2021/03/08 04:35:38;;;;;;;57.73;27.97;;;;;;;3.06;73.51;102415.56;5021117;28;20059;-71
2021/03/08 04:38:05;;;;;;;;;;;;;;;3.11;73.38;102413.38;5001390;28;20565;-74
2021/03/08 04:40:31;;;;;;;45.03;22.13;;;;;;;3.07;73.36;102416.47;5023749;28;19912;-74
2021/03/08 04:42:57;;;;;;;50.07;25.87;;;;;;;3.06;73.64;102412.16;4995570;28;20063;-74
2021/03/08 04:45:23;;;;;;;52.88;28.00;;;;;;;3.07;73.87;102416.47;4982609;28;20032;-73
2021/03/08 04:47:50;;;;;;;57.72;26.80;;;;;;;3.06;73.61;102413.03;5012475;28;20426;-74
2021/03/08 04:52:52;;;;;;;56.63;29.13;;;;;;;3.06;73.53;102414.69;4964185;28;20152;-76
2021/03/08 04:55:20;;;;;;;50.47;26.10;;;;;;;3.08;73.40;102414.03;4967759;28;20059;-76
2021/03/08 04:57:45;;;;;;;51.87;26.57;;;;;;;3.11;73.38;102416.81;4978246;28;20542;-76
2021/03/08 05:00:13;;;;;;;55.60;27.90;;;;;;;3.10;73.61;102415.03;4977770;28;20032;-77
2021/03/08 05:02:43;;;;;;;57.17;28.23;;;;;;;3.13;73.00;102410.19;4961456;28;20013;-76
2021/03/08 05:05:10;;;;;;;59.17;27.07;;;;;;;3.11;73.23;102414.28;4963991;28;20106;-78
2021/03/08 05:07:39;;;;;;;55.27;28.77;;;;;;;3.09;72.71;102410.72;4961142;28;20044;-76
2021/03/08 05:10:08;;;;;;;54.03;27.03;;;;;;;3.12;73.12;102410.09;4961623;28;20079;-76
2021/03/08 05:12:36;;;;;;;52.43;26.37;;;;;;;3.11;72.85;102411.72;4944808;28;20025;-79
2021/03/08 05:15:05;;;;;;;52.17;26.23;;;;;;;3.15;72.76;102409.44;4970712;28;20129;-76
2021/03/08 05:17:32;;;;;;;57.93;27.33;;;;;;;3.12;73.39;102405.88;4966614;28;20028;-76
2021/03/08 05:19:59;;;;;;;56.53;27.93;;;;;;;3.14;72.89;102408.53;4970775;28;20029;-76
2021/03/08 05:22:25;;;;;;;57.10;28.77;;;;;;;3.12;73.15;102410.09;4961175;28;20021;-76
2021/03/08 05:24:51;;;;;;;55.00;27.73;;;;;;;3.16;72.48;102407.00;4964343;28;20057;-76
2021/03/08 05:27:18;;;;;;;54.65;28.25;;;;;;;3.11;73.12;102409.19;4965632;28;20279;-76
2021/03/08 05:29:46;;;;;;;60.50;28.07;;;;;;;3.14;72.86;102408.53;4981357;28;20131;-76
2021/03/08 05:32:25;;;;;;;53.63;27.10;;;;;;;3.16;72.75;102401.94;4966682;28;20044;-76
2021/03/08 05:34:53;;;;;;;53.33;27.77;;;;;;;3.13;73.10;102402.59;4973448;28;20033;-78
2021/03/08 05:37:20;;;;;;;54.90;27.80;;;;;;;3.11;73.01;102404.13;4978079;28;20051;-77
2021/03/08 05:39:46;;;;;;;56.43;28.47;;;;;;;3.17;72.79;102405.34;4972076;28;20098;-77
2021/03/08 05:42:15;;;;;;;50.57;27.47;;;;;;;3.13;72.93;102402.59;4968543;28;20236;-77
2021/03/08 05:45:00;;;;;;;58.27;27.50;;;;;;;3.18;73.00;102414.75;4952935;28;20021;-77
2021/03/08 05:47:47;;;;;;;55.13;27.07;;;;;;;3.10;73.35;102412.50;4967428;28;20017;-77
2021/03/08 05:50:32;;;;;;;54.33;27.30;;;;;;;3.20;72.86;102413.22;4977066;28;20029;-77
2021/03/08 05:53:33;;;;;;;53.43;27.67;;;;;;;3.14;73.71;102413.63;4946306;28;20893;-77
2021/03/08 05:56:23;;;;;;;57.70;27.87;;;;;;;3.21;73.14;102414.97;4932973;28;20042;-77
2021/03/08 05:59:10;;;;;;;51.73;26.97;;;;;;;3.18;73.19;102412.22;4944733;28;20038;-77
2021/03/08 06:01:53;;;;;;;55.92;28.25;;;;;;;3.20;73.28;102423.38;4973490;28;20051;-78
2021/03/08 06:04:34;;;;;;;56.70;28.33;;;;;;;3.13;73.89;102415.28;4982508;28;20029;-77
2021/03/08 06:07:18;;;;;;;57.43;28.33;;;;;;;3.01;74.51;102416.88;4983529;28;20029;-76
2021/03/08 06:10:14;;;;;;;56.53;29.53;;;;;;;3.14;73.89;102413.63;4974768;28;20111;-77
2021/03/08 06:12:43;;;;;;;56.20;29.43;;;;;;;3.05;74.75;102418.88;4966957;28;20551;-76
2021/03/08 06:15:13;;;;;;;57.77;27.73;;;;;;;3.09;74.31;102415.81;4965794;28;20022;-77
2021/03/08 06:17:39;;;;;;;55.93;28.37;;;;;;;3.09;74.15;102423.41;4963539;28;20056;-77
2021/03/08 06:20:07;;;;;;;53.20;28.80;;;;;;;3.00;76.23;102421.81;4964464;28;20021;-77
2021/03/08 06:22:33;;;;;;;58.13;29.93;;;;;;;2.89;76.05;102426.03;4945629;28;20048;-77
2021/03/08 06:24:59;;;;;;;54.43;27.93;;;;;;;2.91;75.93;102423.59;4980392;28;20061;-77
2021/03/08 06:27:25;;;;;;;52.20;27.27;;;;;;;3.13;74.68;102424.53;4976969;28;20024;-77
2021/03/08 06:29:52;;;;;;;54.35;28.95;;;;;;;3.04;76.15;102432.34;4965289;28;20372;-76
2021/03/08 06:32:18;;;;;;;52.27;27.30;;;;;;;3.00;76.05;102430.31;4983173;28;20053;-77
2021/03/08 06:34:43;;;;;;;57.90;27.52;;;;;;;3.07;75.58;102426.63;4964616;28;20339;-76
2021/03/08 06:37:12;;;;;;;56.05;28.58;;;;;;;3.09;76.58;102431.03;4966208;28;20199;-77
2021/03/08 06:39:39;;;;;;;56.87;27.77;;;;;;;3.08;77.07;102430.91;4976991;28;20480;-76
2021/03/08 06:42:05;;;;;;;57.60;28.13;;;;;;;3.01;77.26;102432.09;4974051;28;20025;-77
2021/03/08 06:44:31;;;;;;;;;;;;;;;3.05;76.52;102449.34;4967097;28;20052;-76
2021/03/08 06:46:57;;;;;;;56.00;26.83;;;;;;;3.00;76.92;102440.47;4985003;28;20250;-75
2021/03/08 06:49:23;;;;;;;61.43;29.00;;;;;;;3.10;76.18;102442.09;4983603;28;20025;-75
2021/03/08 06:52:01;;;;;;;58.03;29.80;;;;;;;3.08;76.21;102446.16;4965228;28;20257;-75
2021/03/08 06:54:26;;;;;;;57.03;28.73;;;;;;;3.23;75.44;102449.00;4974215;28;20044;-75
2021/03/08 06:56:52;;;;;;;58.97;27.90;;;;;;;3.21;76.39;102437.84;4963015;28;20052;-75
2021/03/08 06:59:17;;;;;;;57.20;29.60;;;;;;;3.28;75.69;102447.75;4967040;28;20305;-75
2021/03/08 07:01:44;;;;;;;59.40;28.42;;;;;;;3.34;76.51;102448.22;4983708;28;20309;-75
2021/03/08 07:04:30;;;;;;;62.70;29.13;;;;;;;3.32;76.95;102445.56;4982833;28;20021;-79
2021/03/08 07:07:06;;;;;;;59.63;28.77;;;;;;;3.30;77.05;102446.22;4983708;28;20025;-75
2021/03/08 07:09:45;;;;;;;55.95;28.67;;;;;;;3.41;75.73;102442.84;4964479;28;20033;-76
2021/03/08 07:12:13;;;;;;;59.90;28.70;;;;;;;3.42;75.82;102453.13;4963414;28;20815;-75
2021/03/08 07:14:40;;;;;;;58.00;27.97;;;;;;;3.63;75.29;102448.81;4947937;28;20060;-76
2021/03/08 07:17:35;;;;;;;55.37;27.63;;;;;;;3.66;75.65;102451.59;4972110;28;20227;-76
2021/03/08 07:20:02;;;;;;;57.20;26.83;;;;;;;3.60;75.68;102448.59;4981068;28;20021;-76
2021/03/08 07:22:50;;;;;;;59.03;27.67;;;;;;;3.69;76.40;102448.41;4978111;28;20029;-75
2021/03/08 07:25:21;;;;;;;;;;;;;;;3.70;76.21;102455.25;4976483;28;20052;-76
2021/03/08 07:27:49;;;;;;;56.33;28.30;;;;;;;3.83;74.70;102457.06;4983178;28;19909;-75
2021/03/08 07:30:17;;;;;;;55.73;29.23;;;;;;;3.88;74.30;102460.84;4968022;28;20047;-76
2021/03/08 07:33:09;;;;;;;57.33;27.80;;;;;;;4.07;73.57;102458.94;4974285;28;20025;-78
2021/03/08 07:35:46;;;;;;;54.77;28.23;;;;;;;4.04;74.14;102461.25;4964820;28;20136;-77
2021/03/08 07:38:12;;;;;;;;;;;;;;;4.22;73.11;102460.09;4946502;28;20025;-76
2021/03/08 07:40:43;;;;;;;55.50;27.20;;;;;;;4.31;73.43;102460.78;4970812;28;19940;-76
2021/03/08 07:43:19;;;;;;;53.20;26.53;;;;;;;4.44;72.77;102457.50;4966684;28;20639;-76
2021/03/08 07:45:45;;;;;;;56.25;27.98;;;;;;;4.38;73.09;102457.03;4962031;28;20030;-76
2021/03/08 07:48:12;;;;;;;54.58;27.40;;;;;;;4.59;72.70;102467.94;4971656;28;20028;-76
2021/03/08 07:50:38;;;;;;;55.13;27.80;;;;;;;4.74;70.92;102469.03;4962024;28;20135;-76
2021/03/08 07:53:29;;;;;;;53.17;26.30;;;;;;;4.71;71.13;102462.84;4969236;28;20158;-76
2021/03/08 07:55:56;;;;;;;50.43;26.57;;;;;;;4.69;71.85;102473.81;4967242;28;20534;-76
2021/03/08 07:58:24;;;;;;;55.03;26.53;;;;;;;4.86;71.22;102471.59;4965649;28;20102;-76
2021/03/08 08:00:49;;;;;;;61.20;27.37;;;;;;;4.96;70.54;102472.38;4976636;28;20079;-77
2021/03/08 08:03:16;;;;;;;49.85;25.33;;;;;;;4.89;69.81;102472.72;4969486;28;20339;-75
2021/03/08 08:05:41;;;;;;;52.27;25.97;;;;;;;4.95;70.10;102478.25;4968037;28;20032;-75
2021/03/08 08:08:07;;;;;;;53.67;27.88;;;;;;;4.95;70.54;102469.72;4984686;28;20297;-77
2021/03/08 08:10:33;;;;;;;51.88;25.73;;;;;;;4.95;71.16;102473.16;4967196;28;20025;-75
2021/03/08 08:13:03;;;;;;;54.13;26.07;;;;;;;5.06;70.23;102473.03;4984335;28;20025;-75
2021/03/08 08:15:31;;;;;;;49.07;25.60;;;;;;;5.03;71.70;102476.25;4973729;28;20022;-76
2021/03/08 08:17:59;;;;;;;54.10;26.63;;;;;;;5.32;69.71;102483.44;4961906;28;20881;-76
2021/03/08 08:20:28;;;;;;;48.87;25.50;;;;;;;5.37;68.28;102482.09;4961538;28;20044;-75
2021/03/08 08:22:59;;;;;;;55.27;25.30;;;;;;;5.36;69.44;102479.44;4974000;28;20051;-75
2021/03/08 08:25:28;;;;;;;51.30;25.90;;;;;;;5.37;68.38;102484.63;4981394;28;20047;-75
2021/03/08 08:27:54;;;;;;;47.93;25.10;;;;;;;5.41;69.00;102480.63;4964370;28;20127;-75
2021/03/08 08:30:24;;;;;;;45.60;22.88;;;;;;;5.44;68.69;102478.31;4976784;28;20327;-75
2021/03/08 08:32:52;;;;;;;44.37;24.57;;;;;;;5.54;68.38;102476.53;4976882;28;20031;-75
2021/03/08 08:35:23;;;;;;;47.30;23.63;;;;;;;5.70;68.30;102478.47;4977247;28;20029;-75
2021/03/08 08:38:16;;;;;;;48.23;23.53;;;;;;;5.85;67.18;102473.53;4963814;28;20140;-75
2021/03/08 08:40:43;;;;;;;46.83;23.43;;;;;;;5.93;67.49;102475.00;4941769;28;20052;-75
2021/03/08 08:43:14;;;;;;;46.93;23.67;;;;;;;6.15;67.54;102468.00;4977877;28;20032;-75
2021/03/08 08:45:41;;;;;;;43.10;21.63;;;;;;;6.23;66.36;102464.31;4965390;28;20502;-75
2021/03/08 08:48:07;;;;;;;45.57;21.73;;;;;;;6.31;66.29;102466.50;4963844;28;20013;-76
2021/03/08 08:50:52;;;;;;;44.10;21.95;;;;;;;6.68;67.74;102470.69;4980767;28;20335;-75
2021/03/08 08:53:36;;;;;;;39.13;19.77;;;;;;;7.28;63.67;102470.28;4968616;28;20068;-81
2021/03/08 08:56:04;;;;;;;40.40;21.80;;;;;;;7.94;64.27;102465.00;4964952;28;20041;-77
2021/03/08 08:58:42;;;;;;;38.20;20.70;;;;;;;8.36;60.95;102463.25;4974815;28;20037;-77
2021/03/08 09:01:12;;;;;;;43.90;21.93;;;;;;;8.96;60.23;102458.19;4976555;28;20050;-76
2021/03/08 09:03:59;;;;;;;39.63;22.17;;;;;;;9.91;58.31;102459.06;4966359;28;20040;-77
2021/03/08 09:06:50;;;;;;;33.60;19.15;;;;;;;10.02;53.45;102461.31;4970435;28;20021;-77
2021/03/08 09:09:36;;;;;;;35.33;19.37;;;;;;;9.46;55.51;102470.38;4967685;28;20017;-77
2021/03/08 09:12:06;;;;;;;37.13;19.97;;;;;;;9.77;57.04;102472.88;4951156;28;20041;-77
2021/03/08 09:14:38;;;;;;;40.03;20.70;;;;;;;10.74;54.46;102463.31;4981922;28;20114;-77
2021/03/08 09:17:29;;;;;;;35.70;20.80;;;;;;;10.90;53.06;102455.50;4968180;28;20033;-76
2021/03/08 09:19:55;;;;;;;29.65;19.42;;;;;;;10.99;52.96;102458.50;4965135;28;20056;-77
2021/03/08 09:22:20;;;;;;;43.92;22.02;;;;;;;10.94;51.28;102460.00;4970593;28;20319;-77
2021/03/08 09:24:47;;;;;;;35.92;20.58;;;;;;;11.04;51.83;102461.31;4961961;28;20040;-77
2021/03/08 09:27:24;;;;;;;38.08;21.65;;;;;;;11.22;50.14;102455.34;4959654;28;20022;-77
2021/03/08 09:29:51;;;;;;;38.20;21.42;;;;;;;12.19;49.76;102447.69;4967345;28;20029;-77
2021/03/08 09:32:17;;;;;;;38.95;22.45;;;;;;;13.30;47.02;102447.09;4971046;28;20021;-77
2021/03/08 09:34:43;;;;;;;32.40;20.42;;;;;;;13.74;44.68;102440.13;4971607;28;20035;-77
2021/03/08 09:37:10;;;;;;;37.47;21.00;;;;;;;13.47;43.38;102439.13;4975557;28;20291;-77
2021/03/08 09:39:55;;;;;;;35.95;21.42;;;;;;;14.42;44.89;102446.81;4981593;28;20029;-77
2021/03/08 09:42:21;;;;;;;36.25;20.48;;;;;;;14.60;41.48;102444.00;4961634;28;20136;-77
2021/03/08 09:44:47;;;;;;;;;;;;;;;13.77;42.19;102441.94;4965594;28;20029;-78
2021/03/08 09:47:13;;;;;;;37.60;20.27;;;;;;;14.67;42.18;102442.50;4967642;28;20679;-77
2021/03/08 09:49:54;;;;;;;35.30;21.23;;;;;;;14.91;39.01;102432.91;4962909;28;20449;-76
2021/03/08 09:52:35;;;;;;;34.80;20.45;;;;;;;14.54;40.05;102430.88;4961153;28;20043;-77
2021/03/08 09:55:03;;;;;;;39.53;22.35;;;;;;;14.84;42.42;102428.38;4959161;28;20048;-77
2021/03/08 09:57:34;;;;;;;35.20;22.35;;;;;;;15.17;40.80;102421.66;4960377;28;20903;-77
2021/03/08 10:00:00;;;;;;;36.17;21.15;;;;;;;15.36;38.69;102428.28;4963564;28;20029;-77
2021/03/08 10:02:25;;;;;;;35.10;22.35;;;;;;;15.90;39.10;102420.31;4984677;28;20377;-77
2021/03/08 10:04:57;;;;;;;;;;;;;;;16.36;40.69;102427.59;4963559;28;20039;-76
2021/03/08 10:07:23;;;;;;;34.65;21.88;;;;;;;16.45;39.40;102427.81;4963224;28;19951;-77
2021/03/08 10:10:05;;;;;;;34.75;22.65;;;;;;;16.73;39.25;102436.31;4977495;28;20017;-77
2021/03/08 10:12:30;;;;;;;33.40;23.08;;;;;;;16.69;39.68;102427.56;4967456;28;20550;-77
2021/03/08 10:15:03;;;;;;;36.03;21.90;;;;;;;16.93;38.22;102423.81;4967117;28;20025;-77
2021/03/08 10:17:29;;;;;;;36.00;23.13;;;;;;;17.05;37.80;102424.06;4980565;28;20111;-77
2021/03/08 10:19:56;;;;;;;37.45;23.30;;;;;;;17.77;35.94;102423.88;4967700;28;20379;-78
2021/03/08 10:22:40;;;;;;;38.25;24.10;;;;;;;17.07;35.55;102422.38;4965413;28;20030;-77
2021/03/08 10:25:30;;;;;;;32.58;22.50;;;;;;;16.60;38.73;102429.94;4962550;28;20030;-77
2021/03/08 10:28:04;;;;;;;30.90;20.75;;;;;;;17.40;37.38;102428.31;4963012;28;20219;-77
2021/03/08 10:30:32;;;;;;;32.63;21.15;;;;;;;17.63;35.55;102430.50;4983711;28;20114;-77
2021/03/08 10:33:22;;;;;;;34.08;21.15;;;;;;;16.81;35.68;102429.56;4963315;28;20052;-78
2021/03/08 10:35:53;;;;;;;22.15;15.93;;;;;;;15.83;36.00;102426.16;4981836;28;20063;-77
2021/03/08 10:38:32;;;;;;;25.00;15.18;;;;;;;14.31;37.94;102433.56;4984770;28;20118;-78
2021/03/08 10:40:59;;;;;;;29.35;16.10;;;;;;;13.70;40.16;102431.41;4967800;28;20035;-77
2021/03/08 10:43:26;;;;;;;28.27;17.58;;;;;;;14.27;41.07;102430.78;4967940;28;20037;-78
2021/03/08 10:45:54;;;;;;;29.10;16.70;;;;;;;14.53;40.06;102429.09;4971552;28;20055;-77
2021/03/08 10:48:20;;;;;;;28.67;16.98;;;;;;;15.65;38.45;102425.69;4967086;28;20033;-78
2021/03/08 10:53:23;;;;;;;24.42;15.43;;;;;;;16.85;34.78;102420.13;5012867;28;20044;-74
2021/03/08 10:55:50;;;;;;;25.42;15.60;;;;;;;17.39;35.43;102418.75;5012340;28;20027;-74
2021/03/08 10:58:16;;;;;;;28.20;16.77;;;;;;;17.78;35.70;102420.44;5009640;28;20025;-73
2021/03/08 11:00:42;;;;;;;;;;;;;;;17.61;35.06;102408.81;5021288;28;20329;-73
2021/03/08 11:03:34;;;;;;;26.43;17.60;;;;;;;18.11;33.77;102411.50;4990259;28;19917;-73
2021/03/08 11:06:08;;;;;;;26.48;17.88;;;;;;;17.86;33.84;102418.84;4973879;28;20067;-73
2021/03/08 11:08:39;;;;;;;27.73;18.20;;;;;;;17.65;34.87;102413.22;4979368;28;20028;-73
2021/03/08 11:11:28;;;;;;;27.85;18.05;;;;;;;17.56;36.46;102406.13;5023856;28;20027;-73
2021/03/08 11:14:01;;;;;;;30.42;18.58;;;;;;;18.01;33.57;102408.75;5007099;28;20047;-74
2021/03/08 11:16:27;;;;;;;26.67;18.55;;;;;;;18.40;34.56;102407.66;4997185;28;20143;-74
2021/03/08 11:18:53;;;;;;;26.77;17.80;;;;;;;17.96;32.59;102410.38;5003191;28;20111;-75
2021/03/08 11:21:23;;;;;;;28.05;18.05;;;;;;;17.63;34.56;102407.13;5012649;28;20349;-74
2021/03/08 11:23:49;;;;;;;28.48;18.15;;;;;;;17.65;34.86;102410.63;5015967;28;20037;-75
2021/03/08 11:26:15;;;;;;;26.92;18.50;;;;;;;17.18;33.79;102414.81;5002057;28;20034;-73
2021/03/08 11:28:42;;;;;;;26.02;16.33;;;;;;;16.44;35.17;102422.59;5018268;28;20266;-74
2021/03/08 11:31:22;;;;;;;25.23;16.60;;;;;;;15.64;37.03;102418.75;5003360;28;20134;-74
2021/03/08 11:33:53;;;;;;;32.13;17.92;;;;;;;15.55;37.98;102415.00;5014215;28;20134;-74
2021/03/08 11:36:34;;;;;;;26.50;16.27;;;;;;;15.31;37.00;102406.56;5013050;28;20036;-74
2021/03/08 11:39:07;;;;;;;28.40;16.33;;;;;;;14.32;38.09;102417.22;4982798;28;20041;-74